»·PEaware :: XOJ73 KPDX-KOTH

XOJ73 :: KPDX-KOTH

FLIGHT INFORMATION

Flight Status: Arrived
Operator:
XOJET
More flights by this operator :: More flights under this callsign
Pilot: Skye D. (10623)
Aircraft: BOMBARDIER BD-100 CHALLENGER 300
(CL30)
More flights by this aircraft type
Origin: KPDX Portland Intl
United States
Destination: KOTH North Bend Mun
United States
More flights between these airports :: More routes between these airports
Route: UBG V287 OTH
File this flight plan on PilotEdge
Remarks:
Altitude:
(Current/Filed)
18,000ft
Speed:
(Current/Filed)
350kts
Departed: 30-Oct-17 12:52 PM
Arrived: 30-Oct-17 01:27 PM
Distance/Time
Traveled:
148nm/0:35
Distance/Time
To Go:
Arrived

Flight Plot

Page will automatically refresh every two minutes.

Flight plan parsing failed; only flown route is shown


Map Options




Map Legend


Flown Route
Filed Route
Departure Airport
Arrival Airport
Navaid (VOR, NDB)
Fix

Horizontal Profiles

Position Reports

Time Latitude Longitude Heading Altitude Ground
Speed
30-Oct-17 12:35 45.588370 -122.585340 209 23ft 0kts
30-Oct-17 12:36 45.588370 -122.585340 209 23ft 0kts
30-Oct-17 12:37 45.588370 -122.585340 209 23ft 0kts
30-Oct-17 12:38 45.588370 -122.585340 209 23ft 0kts
30-Oct-17 12:39 45.588370 -122.585340 209 23ft 0kts
30-Oct-17 12:40 45.588370 -122.585340 209 23ft 0kts
30-Oct-17 12:41 45.588370 -122.585340 209 23ft 0kts
30-Oct-17 12:42 45.588370 -122.585340 209 23ft 0kts
30-Oct-17 12:43 45.588370 -122.585340 209 23ft 0kts
30-Oct-17 12:44 45.588370 -122.585340 209 23ft 0kts
30-Oct-17 12:45 45.588370 -122.585340 209 23ft 0kts
30-Oct-17 12:46 45.588370 -122.585340 209 23ft 0kts
30-Oct-17 12:47 45.588370 -122.585340 209 23ft 0kts
30-Oct-17 12:48 45.588370 -122.585340 209 23ft 0kts
30-Oct-17 12:49 45.588301 -122.585817 298 23ft 3kts
30-Oct-17 12:50 45.588358 -122.584471 119 23ft 10kts
30-Oct-17 12:51 45.587868 -122.582910 73 23ft 3kts
30-Oct-17 12:52 45.589093 -122.584222 298 23ft 20kts
30-Oct-17 12:53 45.591373 -122.590008 300 23ft 21kts
30-Oct-17 12:54 45.593597 -122.595700 298 27ft 13kts
30-Oct-17 12:55 45.594485 -122.597475 49 26ft 0kts
30-Oct-17 12:56 45.595045 -122.596275 89 26ft 6kts
30-Oct-17 12:57 45.586071 -122.574395 121 863ft 157kts
30-Oct-17 12:58 45.556713 -122.520254 153 5001ft 229kts
30-Oct-17 12:59 45.506967 -122.567254 242 9015ft 290kts
30-Oct-17 13:00 45.467482 -122.675933 243 11854ft 378kts
30-Oct-17 13:01 45.419859 -122.804368 243 16195ft 395kts
30-Oct-17 13:02 45.368609 -122.938590 242 18181ft 414kts
30-Oct-17 13:03 45.273585 -123.026244 206 18166ft 429kts
30-Oct-17 13:04 45.165721 -123.096705 204 18166ft 427kts
30-Oct-17 13:05 45.061285 -123.162967 204 18167ft 427kts
30-Oct-17 13:06 44.957320 -123.228287 204 18113ft 427kts
30-Oct-17 13:07 44.850791 -123.294969 204 18089ft 428kts
30-Oct-17 13:08 44.744306 -123.361329 204 18090ft 427kts
30-Oct-17 13:09 44.637289 -123.427623 204 18091ft 427kts
30-Oct-17 13:10 44.530138 -123.493865 204 18091ft 427kts
30-Oct-17 13:11 44.423102 -123.559807 204 18092ft 427kts
30-Oct-17 13:12 44.316002 -123.625428 204 18093ft 427kts
30-Oct-17 13:13 44.209134 -123.691360 203 18068ft 428kts
30-Oct-17 13:14 44.102181 -123.756940 203 18032ft 428kts
30-Oct-17 13:15 43.994677 -123.822239 203 18030ft 428kts
30-Oct-17 13:16 43.887658 -123.886897 203 18027ft 427kts
30-Oct-17 13:17 43.780367 -123.951453 203 18025ft 427kts
30-Oct-17 13:18 43.676356 -124.020371 217 16876ft 415kts
30-Oct-17 13:19 43.587233 -124.113320 216 14092ft 399kts
30-Oct-17 13:20 43.509266 -124.193330 215 13382ft 317kts
30-Oct-17 13:21 43.443048 -124.265385 232 10978ft 309kts
30-Oct-17 13:22 43.404321 -124.333544 224 9177ft 298kts
30-Oct-17 13:23 43.338030 -124.391560 196 6454ft 280kts
30-Oct-17 13:24 43.266234 -124.422176 196 3903ft 264kts
30-Oct-17 13:25 43.255556 -124.478560 351 3209ft 174kts
30-Oct-17 13:26 43.289074 -124.444785 40 2217ft 157kts
30-Oct-17 13:27 43.319261 -124.412005 23 2132ft 141kts
30-Oct-17 13:28 43.349396 -124.394601 7 2164ft 164kts
30-Oct-17 13:29 43.381089 -124.343644 59 1400ft 164kts
30-Oct-17 13:30 43.398803 -124.299439 56 629ft 124kts
30-Oct-17 13:31 43.415455 -124.258878 56 29ft 119kts
30-Oct-17 13:32 43.419352 -124.247248 146 18ft 1kts
30-Oct-17 13:33 43.418178 -124.246805 225 20ft 7kts

Navigation Log

Ident Type
Flight plan parsing failed, navigation log unavailable